Latest Weather Observations for Fort Denison

IDN60801

Issued at 12:52 am EDT Saturday 17 November 2018 (issued every 10 minutes, with the page automatically refreshed every 10 minutes)

About weather observations | Map of weather stations | Latest weather observations for NSW | Other Formats
Station Details ID: 066022 Name: FORT DENISON Lat: -33.86 Lon: 151.23 Height: 5.0 m
Data from the previous 72 hours. | See also: Recent months for locations in New South Wales
Date/Time
EDT
Temp
°C
App
Temp
°C
Dew
Point
°C
Rel
Hum
%
Delta-T
°C
Wind Press
QNH
hPa
Press
MSL
hPa
Rain since
9am
mm
Dir  Spd
km/h
Gust
km/h
Spd
kts
Gust
kts
17/12:30am - - - - - W 13 17 7 9 - - -
17/12:00am - - - - - WNW 6 7 3 4 - - -
 
Date/Time
EDT
Temp
°C
App
Temp
°C
Dew
Point
°C
Rel
Hum
%
Delta-T
°C
Wind Press
QNH
hPa
Press
MSL
hPa
Rain since
9am
mm
Dir  Spd
km/h
Gust
km/h
Spd
kts
Gust
kts
16/11:30pm - - - - - NNW 2 4 1 2 - - -
16/11:00pm - - - - - NNW 6 7 3 4 - - -
16/10:30pm - - - - - NNE 4 6 2 3 - - -
16/10:00pm - - - - - SE 4 4 2 2 - - -
16/09:30pm - - - - - SE 6 9 3 5 - - -
16/09:00pm - - - - - SE 6 9 3 5 - - -
16/08:30pm - - - - - SSE 9 13 5 7 - - -
16/08:00pm - - - - - S 7 15 4 8 - - -
16/07:30pm - - - - - SE 13 17 7 9 - - -
16/07:00pm - - - - - SSE 15 20 8 11 - - -
16/06:30pm - - - - - SSE 15 20 8 11 - - -
16/06:00pm - - - - - SSE 15 22 8 12 - - -
16/05:30pm - - - - - SE 19 26 10 14 - - -
16/05:00pm - - - - - ESE 19 24 10 13 - - -
16/04:30pm - - - - - SE 17 22 9 12 - - -
16/04:00pm - - - - - SE 15 22 8 12 - - -
16/03:30pm - - - - - ESE 15 20 8 11 - - -
16/03:00pm - - - - - ESE 17 24 9 13 - - -
16/02:30pm - - - - - ESE 19 22 10 12 - - -
16/02:00pm - - - - - SSE 15 22 8 12 - - -
16/01:30pm - - - - - SSE 17 24 9 13 - - -
16/01:00pm - - - - - S 15 24 8 13 - - -
16/12:30pm - - - - - SSW 17 28 9 15 - - -
16/12:00pm - - - - - SSW 13 24 7 13 - - -
16/11:30am - - - - - SSW 17 26 9 14 - - -
16/11:00am - - - - - SSW 17 24 9 13 - - -
16/10:30am - - - - - SSW 15 24 8 13 - - -
16/10:00am - - - - - SSW 15 22 8 12 - - -
16/09:30am - - - - - SSW 15 22 8 12 - - -
16/09:00am - - - - - SSW 17 28 9 15 - - -
16/08:30am - - - - - SSW 20 32 11 17 - - -
16/08:00am - - - - - SSW 22 32 12 17 - - -
16/07:30am - - - - - SSW 20 35 11 19 - - -
16/07:00am - - - - - SSW 17 26 9 14 - - -
16/06:30am - - - - - SSW 19 30 10 16 - - -
16/06:00am - - - - - S 20 30 11 16 - - -
16/05:30am - - - - - SSW 13 22 7 12 - - -
16/05:00am - - - - - SW 13 24 7 13 - - -
16/04:30am - - - - - SSW 15 24 8 13 - - -
16/04:00am - - - - - SW 13 22 7 12 - - -
16/03:30am - - - - - SW 11 17 6 9 - - -
16/03:00am - - - - - SSW 17 26 9 14 - - -
16/02:30am - - - - - S 17 26 9 14 - - -
16/02:00am - - - - - S 20 30 11 16 - - -
16/01:30am - - - - - S 17 26 9 14 - - -
16/01:00am - - - - - S 17 28 9 15 - - -
16/12:30am - - - - - S 17 28 9 15 - - -
16/12:00am - - - - - S 17 24 9 13 - - -
 
Date/Time
EDT
Temp
°C
App
Temp
°C
Dew
Point
°C
Rel
Hum
%
Delta-T
°C
Wind Press
QNH
hPa
Press
MSL
hPa
Rain since
9am
mm
Dir  Spd
km/h
Gust
km/h
Spd
kts
Gust
kts
15/11:30pm - - - - - SSE 17 24 9 13 - - -
15/11:00pm - - - - - SSE 19 28 10 15 - - -
15/10:30pm - - - - - SSE 17 32 9 17 - - -
15/10:00pm - - - - - S 22 32 12 17 - - -
15/09:30pm - - - - - S 24 33 13 18 - - -
15/09:00pm - - - - - SSE 24 33 13 18 - - -
15/08:30pm - - - - - SSE 24 35 13 19 - - -
15/08:00pm - - - - - SSE 26 39 14 21 - - -
15/07:30pm - - - - - S 20 33 11 18 - - -
15/07:00pm - - - - - SSE 28 44 15 24 - - -
15/06:30pm - - - - - SSE 26 39 14 21 - - -
15/06:00pm - - - - - SSE 24 37 13 20 - - -
15/05:30pm - - - - - SSE 26 37 14 20 - - -
15/05:00pm - - - - - SSE 30 43 16 23 - - -
15/04:44pm - - - - - SSE 28 46 15 25 - - -
15/04:30pm - - - - - SSE 26 37 14 20 - - -
15/04:12pm - - - - - S 28 46 15 25 - - -
15/04:00pm - - - - - SSE 32 44 17 24 - - -
15/03:30pm - - - - - SSE 32 44 17 24 - - -
15/03:00pm - - - - - SSE 28 39 15 21 - - -
15/02:46pm - - - - - S 28 48 15 26 - - -
15/02:30pm - - - - - SSE 33 46 18 25 - - -
15/02:11pm - - - - - SSE 28 52 15 28 - - -
15/02:00pm - - - - - SSE 32 44 17 24 - - -
15/01:30pm - - - - - S 26 37 14 20 - - -
15/01:12pm - - - - - S 28 46 15 25 - - -
15/01:00pm - - - - - S 22 46 12 25 - - -
15/12:39pm - - - - - S 28 46 15 25 - - -
15/12:30pm - - - - - S 28 44 15 24 - - -
15/12:00pm - - - - - S 24 39 13 21 - - -
15/11:38am - - - - - SSE 28 46 15 25 - - -
15/11:30am - - - - - SSE 32 46 17 25 - - -
15/11:00am - - - - - S 32 43 17 23 - - -
15/10:30am - - - - - S 26 39 14 21 - - -
15/10:00am - - - - - S 22 35 12 19 - - -
15/09:30am - - - - - S 22 33 12 18 - - -
15/09:00am - - - - - S 22 32 12 17 - - -
15/08:30am - - - - - S 22 33 12 18 - - -
15/08:00am - - - - - S 19 32 10 17 - - -
15/07:30am - - - - - S 17 28 9 15 - - -
15/07:00am - - - - - SSW 9 20 5 11 - - -
15/06:30am - - - - - SSW 11 19 6 10 - - -
15/06:00am - - - - - WNW 9 15 5 8 - - -
15/05:30am - - - - - WNW 15 17 8 9 - - -
15/05:00am - - - - - NW 6 13 3 7 - - -
15/04:30am - - - - - WNW 13 15 7 8 - - -
15/04:00am - - - - - WNW 7 11 4 6 - - -
15/03:30am - - - - - NW 6 9 3 5 - - -
15/03:00am - - - - - WNW 13 13 7 7 - - -
15/02:30am - - - - - W 15 17 8 9 - - -
15/02:00am - - - - - NNW 6 7 3 4 - - -
15/01:30am - - - - - WNW 9 11 5 6 - - -
15/01:00am - - - - - WNW 7 9 4 5 - - -
15/12:30am - - - - - N 2 4 1 2 - - -
15/12:00am - - - - - NNW 2 2 1 1 - - -
 
Date/Time
EDT
Temp
°C
App
Temp
°C
Dew
Point
°C
Rel
Hum
%
Delta-T
°C
Wind Press
QNH
hPa
Press
MSL
hPa
Rain since
9am
mm
Dir  Spd
km/h
Gust
km/h
Spd
kts
Gust
kts
14/11:30pm - - - - - SSE 2 6 1 3 - - -
14/11:00pm - - - - - ESE 2 4 1 2 - - -
14/10:30pm - - - - - E 6 9 3 5 - - -
14/10:00pm - - - - - ESE 9 13 5 7 - - -
14/09:30pm - - - - - SE 4 7 2 4 - - -
14/09:00pm - - - - - SE 4 6 2 3 - - -
14/08:30pm - - - - - ESE 6 7 3 4 - - -
14/08:00pm - - - - - ESE 9 13 5 7 - - -
14/07:30pm - - - - - ENE 6 11 3 6 - - -
14/07:00pm - - - - - ENE 6 11 3 6 - - -
14/06:30pm - - - - - NE 9 20 5 11 - - -
14/06:00pm - - - - - ENE 11 19 6 10 - - -
14/05:30pm - - - - - NE 13 20 7 11 - - -
14/05:00pm - - - - - E 17 20 9 11 - - -
14/04:30pm - - - - - E 11 15 6 8 - - -
14/04:00pm - - - - - E 7 9 4 5 - - -
14/03:30pm - - - - - NE 7 13 4 7 - - -
14/03:00pm - - - - - ENE 15 22 8 12 - - -
14/02:30pm - - - - - E 19 22 10 12 - - -
14/02:00pm - - - - - ENE 11 15 6 8 - - -
14/01:30pm - - - - - E 9 11 5 6 - - -
14/01:00pm - - - - - NNW 6 7 3 4 - - -
14/12:30pm - - - - - W 2 6 1 3 - - -
14/12:00pm - - - - - WSW 7 13 4 7 - - -
14/11:30am - - - - - NNE 2 4 1 2 - - -
14/11:00am - - - - - NNE 2 6 1 3 - - -
14/10:30am - - - - - ESE 13 15 7 8 - - -
14/10:00am - - - - - E 7 9 4 5 - - -
14/09:30am - - - - - E 4 7 2 4 - - -
14/09:00am - - - - - NNE 4 4 2 2 - - -
14/08:30am - - - - - WNW 7 9 4 5 - - -
14/08:00am - - - - - NNW 4 7 2 4 - - -
14/07:30am - - - - - N 6 9 3 5 - - -
14/07:00am - - - - - NE 7 13 4 7 - - -
14/06:30am - - - - - NE 11 19 6 10 - - -
14/06:00am - - - - - NNE 9 17 5 9 - - -
14/05:30am - - - - - NE 13 22 7 12 - - -
14/05:00am - - - - - NE 11 15 6 8 - - -
14/04:30am - - - - - NE 13 22 7 12 - - -
14/04:00am - - - - - NNE 9 19 5 10 - - -
14/03:30am - - - - - ENE 13 19 7 10 - - -
14/03:00am - - - - - ENE 13 19 7 10 - - -
14/02:30am - - - - - NE 9 13 5 7 - - -
14/02:00am - - - - - NE 9 17 5 9 - - -
14/01:30am - - - - - NNE 11 19 6 10 - - -
14/01:00am - - - - - NE 13 22 7 12 - - -

Other Formats:

Comma delimited format used in spreadsheet applications
http://www.bom.gov.au/fwo/IDN60801/IDN60801.94769.axf

JavaScript Object Notation format (JSON) in row-major order
http://www.bom.gov.au/fwo/IDN60801/IDN60801.94769.json